sensor_id;sensor_type;location;lat;lon;timestamp;pressure;altitude;pressure_sealevel;temperature;humidity
36010;BME280;22076;52.182;5.404;2023-09-19T00:01:42;100881.66;;;22.83;100.00
36010;BME280;22076;52.182;5.404;2023-09-19T00:04:11;100883.00;;;22.96;100.00
36010;BME280;22076;52.182;5.404;2023-09-19T00:06:37;100885.16;;;22.92;100.00
36010;BME280;22076;52.182;5.404;2023-09-19T00:09:04;100889.16;;;22.88;100.00
36010;BME280;22076;52.182;5.404;2023-09-19T00:11:35;100898.97;;;23.04;100.00
36010;BME280;22076;52.182;5.404;2023-09-19T00:14:02;100904.63;;;23.09;100.00
36010;BME280;22076;52.182;5.404;2023-09-19T00:16:30;100905.97;;;23.05;100.00
36010;BME280;22076;52.182;5.404;2023-09-19T00:18:58;100907.31;;;23.17;100.00
36010;BME280;22076;52.182;5.404;2023-09-19T00:21:26;100905.66;;;23.24;100.00
36010;BME280;22076;52.182;5.404;2023-09-19T00:23:53;100909.28;;;22.99;100.00
36010;BME280;22076;52.182;5.404;2023-09-19T00:26:20;100905.47;;;23.01;100.00
36010;BME280;22076;52.182;5.404;2023-09-19T00:28:47;100912.78;;;22.99;100.00
36010;BME280;22076;52.182;5.404;2023-09-19T00:31:14;100915.94;;;22.94;100.00
36010;BME280;22076;52.182;5.404;2023-09-19T00:33:40;100913.13;;;22.96;100.00
36010;BME280;22076;52.182;5.404;2023-09-19T00:36:08;100916.94;;;22.85;100.00
36010;BME280;22076;52.182;5.404;2023-09-19T00:38:36;100916.59;;;22.97;100.00
36010;BME280;22076;52.182;5.404;2023-09-19T00:41:02;100918.28;;;22.89;100.00
36010;BME280;22076;52.182;5.404;2023-09-19T00:43:29;100925.06;;;22.67;100.00
36010;BME280;22076;52.182;5.404;2023-09-19T00:46:00;100915.06;;;22.61;100.00
36010;BME280;22076;52.182;5.404;2023-09-19T00:48:28;100916.25;;;22.83;100.00
36010;BME280;22076;52.182;5.404;2023-09-19T00:50:57;100921.28;;;23.03;100.00
36010;BME280;22076;52.182;5.404;2023-09-19T00:53:25;100925.63;;;22.96;100.00
36010;BME280;22076;52.182;5.404;2023-09-19T00:55:53;100928.25;;;22.79;100.00
36010;BME280;22076;52.182;5.404;2023-09-19T00:58:21;100931.22;;;22.68;100.00
36010;BME280;22076;52.182;5.404;2023-09-19T01:00:48;100931.72;;;22.63;100.00
36010;BME280;22076;52.182;5.404;2023-09-19T01:03:15;100936.25;;;22.71;100.00
36010;BME280;22076;52.182;5.404;2023-09-19T01:05:43;100944.69;;;22.58;100.00
36010;BME280;22076;52.182;5.404;2023-09-19T01:08:10;100942.50;;;22.53;100.00
36010;BME280;22076;52.182;5.404;2023-09-19T01:10:40;100936.38;;;22.61;100.00
36010;BME280;22076;52.182;5.404;2023-09-19T01:13:20;100944.19;;;22.63;100.00
36010;BME280;22076;52.182;5.404;2023-09-19T01:15:53;100940.72;;;22.70;100.00
36010;BME280;22076;52.182;5.404;2023-09-19T01:18:29;100939.72;;;22.71;100.00
36010;BME280;22076;52.182;5.404;2023-09-19T01:21:06;100937.22;;;22.70;100.00
36010;BME280;22076;52.182;5.404;2023-09-19T01:23:52;100939.91;;;22.70;100.00
36010;BME280;22076;52.182;5.404;2023-09-19T01:26:41;100942.91;;;22.75;100.00
36010;BME280;22076;52.182;5.404;2023-09-19T01:29:34;100937.41;;;22.68;100.00
36010;BME280;22076;52.182;5.404;2023-09-19T01:32:08;100928.72;;;22.66;100.00
36010;BME280;22076;52.182;5.404;2023-09-19T01:34:46;100940.06;;;22.68;100.00
36010;BME280;22076;52.182;5.404;2023-09-19T01:37:16;100942.03;;;22.58;100.00
36010;BME280;22076;52.182;5.404;2023-09-19T01:39:46;100937.19;;;22.45;100.00
36010;BME280;22076;52.182;5.404;2023-09-19T01:42:19;100938.88;;;22.63;100.00
36010;BME280;22076;52.182;5.404;2023-09-19T01:44:55;100936.38;;;22.61;100.00
36010;BME280;22076;52.182;5.404;2023-09-19T01:47:28;100946.50;;;22.57;100.00
36010;BME280;22076;52.182;5.404;2023-09-19T01:50:04;100948.69;;;22.62;100.00
36010;BME280;22076;52.182;5.404;2023-09-19T01:52:51;100946.69;;;22.64;100.00
36010;BME280;22076;52.182;5.404;2023-09-19T01:55:21;100948.19;;;22.58;100.00
36010;BME280;22076;52.182;5.404;2023-09-19T01:57:57;100950.03;;;22.66;100.00
36010;BME280;22076;52.182;5.404;2023-09-19T02:00:25;100955.66;;;22.55;100.00
36010;BME280;22076;52.182;5.404;2023-09-19T02:02:56;100952.66;;;22.50;100.00
36010;BME280;22076;52.182;5.404;2023-09-19T02:05:27;100954.47;;;22.49;100.00
36010;BME280;22076;52.182;5.404;2023-09-19T02:07:53;100950.13;;;22.40;100.00
36010;BME280;22076;52.182;5.404;2023-09-19T02:10:21;100952.28;;;22.36;100.00
36010;BME280;22076;52.182;5.404;2023-09-19T02:12:47;100947.22;;;22.25;100.00
36010;BME280;22076;52.182;5.404;2023-09-19T02:15:15;100943.25;;;22.29;100.00
36010;BME280;22076;52.182;5.404;2023-09-19T02:17:42;100939.91;;;22.27;100.00
36010;BME280;22076;52.182;5.404;2023-09-19T02:20:11;100935.66;;;22.42;100.00
36010;BME280;22076;52.182;5.404;2023-09-19T02:22:40;100943.47;;;22.36;100.00
36010;BME280;22076;52.182;5.404;2023-09-19T02:25:07;100942.91;;;22.32;100.00
36010;BME280;22076;52.182;5.404;2023-09-19T02:27:33;100950.03;;;22.23;100.00
36010;BME280;22076;52.182;5.404;2023-09-19T02:30:01;100952.22;;;22.28;100.00
36010;BME280;22076;52.182;5.404;2023-09-19T02:32:35;100954.97;;;22.44;100.00
36010;BME280;22076;52.182;5.404;2023-09-19T02:35:06;100952.41;;;22.35;100.00
36010;BME280;22076;52.182;5.404;2023-09-19T02:37:33;100952.97;;;22.47;100.00
36010;BME280;22076;52.182;5.404;2023-09-19T02:40:10;100967.09;;;22.39;100.00
36010;BME280;22076;52.182;5.404;2023-09-19T02:42:44;100958.34;;;22.20;100.00
36010;BME280;22076;52.182;5.404;2023-09-19T02:45:15;100960.94;;;22.12;100.00
36010;BME280;22076;52.182;5.404;2023-09-19T02:47:43;100969.47;;;22.16;100.00
36010;BME280;22076;52.182;5.404;2023-09-19T02:50:09;100966.75;;;21.99;100.00
36010;BME280;22076;52.182;5.404;2023-09-19T02:52:41;100965.47;;;22.20;100.00
36010;BME280;22076;52.182;5.404;2023-09-19T02:55:09;100970.31;;;21.90;100.00
36010;BME280;22076;52.182;5.404;2023-09-19T02:57:36;100970.47;;;21.88;100.00
36010;BME280;22076;52.182;5.404;2023-09-19T03:00:07;100967.88;;;21.97;100.00
36010;BME280;22076;52.182;5.404;2023-09-19T03:02:35;100968.66;;;21.89;100.00
36010;BME280;22076;52.182;5.404;2023-09-19T03:05:03;100965.22;;;21.97;100.00
36010;BME280;22076;52.182;5.404;2023-09-19T03:07:30;100964.50;;;21.86;100.00
36010;BME280;22076;52.182;5.404;2023-09-19T03:09:58;100964.19;;;21.89;100.00
36010;BME280;22076;52.182;5.404;2023-09-19T03:12:25;100962.06;;;21.67;100.00
36010;BME280;22076;52.182;5.404;2023-09-19T03:14:54;100968.94;;;21.77;100.00
36010;BME280;22076;52.182;5.404;2023-09-19T03:17:21;100957.19;;;21.62;100.00
36010;BME280;22076;52.182;5.404;2023-09-19T03:19:47;100963.88;;;21.66;100.00
36010;BME280;22076;52.182;5.404;2023-09-19T03:22:14;100966.00;;;21.62;100.00
36010;BME280;22076;52.182;5.404;2023-09-19T03:24:41;100969.34;;;21.65;100.00
36010;BME280;22076;52.182;5.404;2023-09-19T03:27:10;100970.25;;;21.73;100.00
36010;BME280;22076;52.182;5.404;2023-09-19T03:29:39;100969.97;;;21.40;100.00
36010;BME280;22076;52.182;5.404;2023-09-19T03:32:05;100981.06;;;21.36;100.00
36010;BME280;22076;52.182;5.404;2023-09-19T03:34:32;100972.81;;;21.47;100.00
36010;BME280;22076;52.182;5.404;2023-09-19T03:36:59;100968.06;;;21.33;100.00
36010;BME280;22076;52.182;5.404;2023-09-19T03:39:25;100977.44;;;21.37;100.00
36010;BME280;22076;52.182;5.404;2023-09-19T03:41:52;100962.47;;;21.36;100.00
36010;BME280;22076;52.182;5.404;2023-09-19T03:44:20;100956.00;;;21.38;100.00
36010;BME280;22076;52.182;5.404;2023-09-19T03:46:47;100959.44;;;21.31;100.00
36010;BME280;22076;52.182;5.404;2023-09-19T03:49:13;100960.66;;;21.18;100.00
36010;BME280;22076;52.182;5.404;2023-09-19T03:51:40;100972.03;;;21.28;100.00
36010;BME280;22076;52.182;5.404;2023-09-19T03:54:07;100976.81;;;21.25;100.00
36010;BME280;22076;52.182;5.404;2023-09-19T03:56:34;100969.31;;;21.20;100.00
36010;BME280;22076;52.182;5.404;2023-09-19T03:59:00;100975.97;;;21.24;100.00
36010;BME280;22076;52.182;5.404;2023-09-19T04:01:29;100985.16;;;21.30;100.00
36010;BME280;22076;52.182;5.404;2023-09-19T04:03:57;100992.47;;;21.10;100.00
36010;BME280;22076;52.182;5.404;2023-09-19T04:06:24;100994.75;;;21.05;100.00
36010;BME280;22076;52.182;5.404;2023-09-19T04:08:52;100998.69;;;21.01;100.00
36010;BME280;22076;52.182;5.404;2023-09-19T04:11:19;101003.31;;;20.99;100.00
36010;BME280;22076;52.182;5.404;2023-09-19T04:13:46;101011.78;;;20.84;100.00
36010;BME280;22076;52.182;5.404;2023-09-19T04:16:13;100998.06;;;20.89;100.00
36010;BME280;22076;52.182;5.404;2023-09-19T04:18:41;101009.59;;;20.98;100.00
36010;BME280;22076;52.182;5.404;2023-09-19T04:21:07;101013.06;;;20.80;100.00
36010;BME280;22076;52.182;5.404;2023-09-19T04:23:35;101020.72;;;20.83;100.00
36010;BME280;22076;52.182;5.404;2023-09-19T04:26:07;101032.44;;;20.90;100.00
36010;BME280;22076;52.182;5.404;2023-09-19T04:28:34;101031.19;;;20.85;100.00
36010;BME280;22076;52.182;5.404;2023-09-19T04:31:03;101040.75;;;20.68;100.00
36010;BME280;22076;52.182;5.404;2023-09-19T04:33:30;101032.56;;;20.71;100.00
36010;BME280;22076;52.182;5.404;2023-09-19T04:36:01;101046.22;;;20.76;100.00
36010;BME280;22076;52.182;5.404;2023-09-19T04:38:28;101052.81;;;20.72;100.00
36010;BME280;22076;52.182;5.404;2023-09-19T04:40:56;101057.06;;;20.83;100.00
36010;BME280;22076;52.182;5.404;2023-09-19T04:43:23;101067.59;;;20.74;100.00
36010;BME280;22076;52.182;5.404;2023-09-19T04:45:50;101055.31;;;20.73;100.00
36010;BME280;22076;52.182;5.404;2023-09-19T04:48:20;101065.06;;;20.73;100.00
36010;BME280;22076;52.182;5.404;2023-09-19T04:50:51;101060.47;;;20.75;100.00
36010;BME280;22076;52.182;5.404;2023-09-19T04:53:19;101048.56;;;20.79;100.00
36010;BME280;22076;52.182;5.404;2023-09-19T04:55:50;101051.81;;;20.73;100.00
36010;BME280;22076;52.182;5.404;2023-09-19T04:58:18;101042.97;;;20.82;100.00
36010;BME280;22076;52.182;5.404;2023-09-19T05:00:45;101051.53;;;20.76;100.00
36010;BME280;22076;52.182;5.404;2023-09-19T05:03:12;101053.41;;;20.56;100.00
36010;BME280;22076;52.182;5.404;2023-09-19T05:05:39;101052.50;;;20.65;100.00
36010;BME280;22076;52.182;5.404;2023-09-19T05:08:06;101056.44;;;20.71;100.00
36010;BME280;22076;52.182;5.404;2023-09-19T05:10:35;101053.38;;;20.66;100.00
36010;BME280;22076;52.182;5.404;2023-09-19T05:13:03;101057.09;;;20.45;100.00
36010;BME280;22076;52.182;5.404;2023-09-19T05:15:30;101051.03;;;20.53;100.00
36010;BME280;22076;52.182;5.404;2023-09-19T05:17:56;101054.97;;;20.49;100.00
36010;BME280;22076;52.182;5.404;2023-09-19T05:20:23;101060.53;;;20.55;100.00
36010;BME280;22076;52.182;5.404;2023-09-19T05:22:58;101057.47;;;20.50;100.00
36010;BME280;22076;52.182;5.404;2023-09-19T05:25:26;101055.97;;;20.38;100.00
36010;BME280;22076;52.182;5.404;2023-09-19T05:27:56;101061.09;;;20.49;100.00
36010;BME280;22076;52.182;5.404;2023-09-19T05:30:24;101063.94;;;20.38;100.00
36010;BME280;22076;52.182;5.404;2023-09-19T05:32:52;101061.41;;;20.46;100.00
36010;BME280;22076;52.182;5.404;2023-09-19T05:35:19;101056.03;;;20.56;100.00
36010;BME280;22076;52.182;5.404;2023-09-19T05:37:47;101048.97;;;20.46;100.00
36010;BME280;22076;52.182;5.404;2023-09-19T05:40:16;101051.38;;;20.40;100.00
36010;BME280;22076;52.182;5.404;2023-09-19T05:42:43;101053.44;;;20.46;100.00
36010;BME280;22076;52.182;5.404;2023-09-19T05:45:11;101056.66;;;20.50;100.00
36010;BME280;22076;52.182;5.404;2023-09-19T05:47:38;101053.88;;;20.41;100.00
36010;BME280;22076;52.182;5.404;2023-09-19T05:50:06;101063.38;;;20.44;100.00
36010;BME280;22076;52.182;5.404;2023-09-19T05:52:34;101066.31;;;20.41;100.00
36010;BME280;22076;52.182;5.404;2023-09-19T05:55:03;101068.00;;;20.42;100.00
36010;BME280;22076;52.182;5.404;2023-09-19T05:57:30;101072.59;;;20.40;100.00
36010;BME280;22076;52.182;5.404;2023-09-19T05:59:57;101074.53;;;20.47;100.00
36010;BME280;22076;52.182;5.404;2023-09-19T06:02:25;101071.00;;;20.57;100.00
36010;BME280;22076;52.182;5.404;2023-09-19T06:04:54;101077.03;;;20.49;100.00
36010;BME280;22076;52.182;5.404;2023-09-19T06:07:20;101078.13;;;20.56;100.00
36010;BME280;22076;52.182;5.404;2023-09-19T06:09:47;101081.75;;;20.55;100.00
36010;BME280;22076;52.182;5.404;2023-09-19T06:12:13;101077.53;;;20.62;100.00
36010;BME280;22076;52.182;5.404;2023-09-19T06:14:42;101092.47;;;20.63;100.00
36010;BME280;22076;52.182;5.404;2023-09-19T06:17:13;101090.69;;;20.64;100.00
36010;BME280;22076;52.182;5.404;2023-09-19T06:19:41;101091.53;;;20.55;100.00
36010;BME280;22076;52.182;5.404;2023-09-19T06:22:15;101092.47;;;20.73;100.00
36010;BME280;22076;52.182;5.404;2023-09-19T06:24:41;101099.13;;;20.50;100.00
36010;BME280;22076;52.182;5.404;2023-09-19T06:27:08;101087.66;;;20.49;100.00
36010;BME280;22076;52.182;5.404;2023-09-19T06:29:35;101096.66;;;20.76;100.00
36010;BME280;22076;52.182;5.404;2023-09-19T06:32:06;101088.84;;;20.74;100.00
36010;BME280;22076;52.182;5.404;2023-09-19T06:34:34;101075.56;;;20.74;100.00
36010;BME280;22076;52.182;5.404;2023-09-19T06:37:02;101071.41;;;20.72;100.00
36010;BME280;22076;52.182;5.404;2023-09-19T06:39:29;101077.00;;;20.59;100.00
36010;BME280;22076;52.182;5.404;2023-09-19T06:41:56;101079.59;;;20.69;100.00
36010;BME280;22076;52.182;5.404;2023-09-19T06:44:23;101077.91;;;20.68;100.00
36010;BME280;22076;52.182;5.404;2023-09-19T06:46:59;101075.50;;;20.84;100.00
36010;BME280;22076;52.182;5.404;2023-09-19T06:49:26;101078.13;;;20.56;100.00
36010;BME280;22076;52.182;5.404;2023-09-19T06:51:54;101081.00;;;20.73;100.00
36010;BME280;22076;52.182;5.404;2023-09-19T06:54:24;101081.00;;;20.73;100.00
36010;BME280;22076;52.182;5.404;2023-09-19T06:56:50;101087.16;;;20.63;100.00
36010;BME280;22076;52.182;5.404;2023-09-19T06:59:18;101079.88;;;20.75;100.00
36010;BME280;22076;52.182;5.404;2023-09-19T07:01:45;101086.47;;;20.71;100.00
36010;BME280;22076;52.182;5.404;2023-09-19T07:04:12;101069.25;;;20.75;100.00
36010;BME280;22076;52.182;5.404;2023-09-19T07:06:39;101069.44;;;20.64;100.00
36010;BME280;22076;52.182;5.404;2023-09-19T07:09:05;101071.34;;;20.82;100.00
36010;BME280;22076;52.182;5.404;2023-09-19T07:11:34;101067.03;;;20.99;100.00
36010;BME280;22076;52.182;5.404;2023-09-19T07:14:02;101072.84;;;20.84;100.00
36010;BME280;22076;52.182;5.404;2023-09-19T07:16:30;101073.41;;;20.88;100.00
36010;BME280;22076;52.182;5.404;2023-09-19T07:18:58;101083.94;;;20.98;100.00
36010;BME280;22076;52.182;5.404;2023-09-19T07:21:25;101093.78;;;20.87;100.00
36010;BME280;22076;52.182;5.404;2023-09-19T07:23:51;101094.81;;;20.86;100.00
36010;BME280;22076;52.182;5.404;2023-09-19T07:26:30;101093.44;;;21.00;100.00
36010;BME280;22076;52.182;5.404;2023-09-19T07:28:58;101095.81;;;21.03;100.00
36010;BME280;22076;52.182;5.404;2023-09-19T07:31:26;101109.88;;;21.13;100.00
36010;BME280;22076;52.182;5.404;2023-09-19T07:33:54;101107.41;;;21.02;100.00
36010;BME280;22076;52.182;5.404;2023-09-19T07:36:20;101102.19;;;21.10;100.00
36010;BME280;22076;52.182;5.404;2023-09-19T07:38:47;101105.97;;;21.08;100.00
36010;BME280;22076;52.182;5.404;2023-09-19T07:41:14;101103.28;;;21.18;100.00
36010;BME280;22076;52.182;5.404;2023-09-19T07:43:40;101099.34;;;21.22;100.00
36010;BME280;22076;52.182;5.404;2023-09-19T07:46:12;101103.16;;;21.37;100.00
36010;BME280;22076;52.182;5.404;2023-09-19T07:48:38;101103.50;;;21.24;100.00
36010;BME280;22076;52.182;5.404;2023-09-19T07:51:08;101104.34;;;21.25;100.00
36010;BME280;22076;52.182;5.404;2023-09-19T07:53:35;101094.78;;;21.32;100.00
36010;BME280;22076;52.182;5.404;2023-09-19T07:56:03;101102.22;;;21.28;100.00
36010;BME280;22076;52.182;5.404;2023-09-19T07:58:30;101106.00;;;21.26;100.00
36010;BME280;22076;52.182;5.404;2023-09-19T08:01:02;101104.91;;;21.46;100.00
36010;BME280;22076;52.182;5.404;2023-09-19T08:03:30;101104.34;;;21.43;100.00
36010;BME280;22076;52.182;5.404;2023-09-19T08:05:57;101109.06;;;21.31;100.00
36010;BME280;22076;52.182;5.404;2023-09-19T08:08:24;101113.47;;;21.40;100.00
36010;BME280;22076;52.182;5.404;2023-09-19T08:10:52;101114.53;;;21.48;100.00
36010;BME280;22076;52.182;5.404;2023-09-19T08:13:22;101102.06;;;21.58;100.00
36010;BME280;22076;52.182;5.404;2023-09-19T08:15:49;101100.78;;;21.52;100.00
36010;BME280;22076;52.182;5.404;2023-09-19T08:18:16;101112.97;;;21.55;100.00
36010;BME280;22076;52.182;5.404;2023-09-19T08:20:49;101105.09;;;21.63;100.00
36010;BME280;22076;52.182;5.404;2023-09-19T08:23:15;101099.50;;;21.74;100.00
36010;BME280;22076;52.182;5.404;2023-09-19T08:25:43;101107.16;;;21.69;100.00
36010;BME280;22076;52.182;5.404;2023-09-19T08:28:10;101105.69;;;21.75;100.00
36010;BME280;22076;52.182;5.404;2023-09-19T08:30:37;101099.22;;;21.77;100.00
36010;BME280;22076;52.182;5.404;2023-09-19T08:33:06;101109.38;;;21.82;100.00
36010;BME280;22076;52.182;5.404;2023-09-19T08:35:33;101101.50;;;21.72;100.00
36010;BME280;22076;52.182;5.404;2023-09-19T08:38:08;101096.19;;;21.72;100.00
36010;BME280;22076;52.182;5.404;2023-09-19T08:40:37;101094.84;;;21.68;100.00
36010;BME280;22076;52.182;5.404;2023-09-19T08:43:05;101093.69;;;21.71;100.00
36010;BME280;22076;52.182;5.404;2023-09-19T08:45:32;101090.47;;;21.85;100.00
36010;BME280;22076;52.182;5.404;2023-09-19T08:48:10;101084.22;;;22.21;100.00
36010;BME280;22076;52.182;5.404;2023-09-19T08:50:43;101082.09;;;22.24;100.00
36010;BME280;22076;52.182;5.404;2023-09-19T08:53:15;101080.75;;;22.20;100.00
36010;BME280;22076;52.182;5.404;2023-09-19T08:55:43;101088.16;;;22.08;100.00
36010;BME280;22076;52.182;5.404;2023-09-19T08:58:16;101083.66;;;22.35;100.00
36010;BME280;22076;52.182;5.404;2023-09-19T09:00:48;101093.69;;;22.41;100.00
36010;BME280;22076;52.182;5.404;2023-09-19T09:03:16;101092.94;;;22.31;100.00
36010;BME280;22076;52.182;5.404;2023-09-19T09:05:46;101097.50;;;22.39;100.00
36010;BME280;22076;52.182;5.404;2023-09-19T09:08:14;101094.06;;;22.47;100.00
36010;BME280;22076;52.182;5.404;2023-09-19T09:10:44;101104.09;;;22.53;100.00
36010;BME280;22076;52.182;5.404;2023-09-19T09:13:10;101099.78;;;22.34;100.00
36010;BME280;22076;52.182;5.404;2023-09-19T09:15:40;101089.81;;;22.62;100.00
36010;BME280;22076;52.182;5.404;2023-09-19T09:18:15;101089.22;;;22.85;100.00
36010;BME280;22076;52.182;5.404;2023-09-19T09:20:43;101090.56;;;22.81;100.00
36010;BME280;22076;52.182;5.404;2023-09-19T09:23:10;101085.03;;;22.74;100.00
36010;BME280;22076;52.182;5.404;2023-09-19T09:25:51;101083.41;;;22.81;100.00
36010;BME280;22076;52.182;5.404;2023-09-19T09:28:23;101088.38;;;22.76;100.00
36010;BME280;22076;52.182;5.404;2023-09-19T09:30:50;101086.97;;;22.64;100.00
36010;BME280;22076;52.182;5.404;2023-09-19T09:33:17;101082.03;;;22.69;100.00
36010;BME280;22076;52.182;5.404;2023-09-19T09:35:47;101075.22;;;22.74;100.00
36010;BME280;22076;52.182;5.404;2023-09-19T09:38:17;101073.34;;;22.67;100.00
36010;BME280;22076;52.182;5.404;2023-09-19T09:40:48;101073.28;;;22.93;100.00
36010;BME280;22076;52.182;5.404;2023-09-19T09:43:28;101067.00;;;23.10;100.00
36010;BME280;22076;52.182;5.404;2023-09-19T09:46:14;101067.97;;;22.93;100.00
36010;BME280;22076;52.182;5.404;2023-09-19T09:49:00;101080.41;;;22.84;100.00
36010;BME280;22076;52.182;5.404;2023-09-19T09:51:58;101071.16;;;23.05;100.00
36010;BME280;22076;52.182;5.404;2023-09-19T09:54:26;101088.59;;;22.99;100.00
36010;BME280;22076;52.182;5.404;2023-09-19T09:57:03;101059.66;;;23.04;100.00
36010;BME280;22076;52.182;5.404;2023-09-19T09:59:50;101078.38;;;23.21;100.00
36010;BME280;22076;52.182;5.404;2023-09-19T10:02:19;101063.47;;;22.93;100.00
36010;BME280;22076;52.182;5.404;2023-09-19T10:04:50;101073.13;;;23.03;100.00
36010;BME280;22076;52.182;5.404;2023-09-19T10:07:35;101084.78;;;22.93;100.00
36010;BME280;22076;52.182;5.404;2023-09-19T10:10:07;101071.63;;;23.00;100.00
36010;BME280;22076;52.182;5.404;2023-09-19T10:12:50;101067.38;;;23.16;100.00
36010;BME280;22076;52.182;5.404;2023-09-19T10:15:25;101075.78;;;22.94;100.00
36010;BME280;22076;52.182;5.404;2023-09-19T10:17:55;101087.41;;;22.85;100.00
36010;BME280;22076;52.182;5.404;2023-09-19T10:20:24;101065.66;;;23.06;100.00
36010;BME280;22076;52.182;5.404;2023-09-19T10:23:05;101065.56;;;23.24;100.00
36010;BME280;22076;52.182;5.404;2023-09-19T10:25:37;101057.72;;;23.23;100.00
36010;BME280;22076;52.182;5.404;2023-09-19T10:28:06;101059.25;;;23.25;100.00
36010;BME280;22076;52.182;5.404;2023-09-19T10:30:38;101052.59;;;23.46;100.00
36010;BME280;22076;52.182;5.404;2023-09-19T10:33:09;101045.75;;;23.43;100.00
36010;BME280;22076;52.182;5.404;2023-09-19T10:35:38;101041.25;;;23.44;100.00
36010;BME280;22076;52.182;5.404;2023-09-19T10:38:07;101039.91;;;23.56;100.00
36010;BME280;22076;52.182;5.404;2023-09-19T10:40:37;101040.56;;;23.67;100.00
36010;BME280;22076;52.182;5.404;2023-09-19T10:43:11;101022.06;;;23.98;100.00
36010;BME280;22076;52.182;5.404;2023-09-19T10:45:40;101023.97;;;24.29;100.00
36010;BME280;22076;52.182;5.404;2023-09-19T10:48:07;101021.75;;;23.93;100.00
36010;BME280;22076;52.182;5.404;2023-09-19T10:50:37;101031.69;;;24.16;100.00
36010;BME280;22076;52.182;5.404;2023-09-19T10:53:12;101005.00;;;24.16;100.00
36010;BME280;22076;52.182;5.404;2023-09-19T10:55:41;101016.66;;;24.15;100.00
36010;BME280;22076;52.182;5.404;2023-09-19T10:58:25;101011.09;;;24.33;100.00
36010;BME280;22076;52.182;5.404;2023-09-19T11:00:56;101005.94;;;24.31;100.00
36010;BME280;22076;52.182;5.404;2023-09-19T11:03:27;101018.84;;;24.19;100.00
36010;BME280;22076;52.182;5.404;2023-09-19T11:06:08;101004.81;;;24.25;100.00
36010;BME280;22076;52.182;5.404;2023-09-19T11:09:00;101001.53;;;24.47;100.00
36010;BME280;22076;52.182;5.404;2023-09-19T11:11:43;100997.56;;;24.34;100.00
36010;BME280;22076;52.182;5.404;2023-09-19T11:14:15;100995.78;;;24.27;100.00
36010;BME280;22076;52.182;5.404;2023-09-19T11:20:21;101002.78;;;24.28;100.00
36010;BME280;22076;52.182;5.404;2023-09-19T11:23:17;101003.66;;;24.20;100.00
36010;BME280;22076;52.182;5.404;2023-09-19T11:25:43;100994.94;;;24.26;100.00
36010;BME280;22076;52.182;5.404;2023-09-19T11:28:32;101000.00;;;24.52;100.00
36010;BME280;22076;52.182;5.404;2023-09-19T11:40:37;100992.00;;;24.52;100.00
36010;BME280;22076;52.182;5.404;2023-09-19T11:43:32;100993.63;;;24.62;100.00
36010;BME280;22076;52.182;5.404;2023-09-19T11:46:04;100991.47;;;24.57;100.00
36010;BME280;22076;52.182;5.404;2023-09-19T11:48:32;100978.81;;;24.51;100.00
36010;BME280;22076;52.182;5.404;2023-09-19T11:51:00;100993.03;;;24.43;100.00
36010;BME280;22076;52.182;5.404;2023-09-19T11:53:33;100983.09;;;24.68;100.00
36010;BME280;22076;52.182;5.404;2023-09-19T11:56:05;100979.53;;;24.76;100.00
36010;BME280;22076;52.182;5.404;2023-09-19T11:58:36;100986.25;;;24.72;100.00
36010;BME280;22076;52.182;5.404;2023-09-19T12:01:05;100991.00;;;24.53;100.00
36010;BME280;22076;52.182;5.404;2023-09-19T12:03:35;101005.16;;;24.62;100.00
36010;BME280;22076;52.182;5.404;2023-09-19T12:06:10;100992.13;;;24.67;100.00
36010;BME280;22076;52.182;5.404;2023-09-19T12:08:40;101013.53;;;24.51;100.00
36010;BME280;22076;52.182;5.404;2023-09-19T12:11:12;101016.69;;;24.54;100.00
36010;BME280;22076;52.182;5.404;2023-09-19T12:13:41;101019.56;;;24.53;100.00
36010;BME280;22076;52.182;5.404;2023-09-19T12:16:12;100997.47;;;24.59;100.00
36010;BME280;22076;52.182;5.404;2023-09-19T12:18:40;100987.22;;;24.39;100.00
36010;BME280;22076;52.182;5.404;2023-09-19T12:21:08;100995.59;;;24.36;100.00
36010;BME280;22076;52.182;5.404;2023-09-19T12:23:57;100998.50;;;24.58;100.00
36010;BME280;22076;52.182;5.404;2023-09-19T12:26:26;101000.19;;;24.51;100.00
36010;BME280;22076;52.182;5.404;2023-09-19T12:28:54;100995.84;;;24.50;100.00
36010;BME280;22076;52.182;5.404;2023-09-19T12:31:21;101003.22;;;24.39;100.00
36010;BME280;22076;52.182;5.404;2023-09-19T12:33:53;100997.63;;;24.66;100.00
36010;BME280;22076;52.182;5.404;2023-09-19T12:36:20;100992.34;;;24.49;100.00
36010;BME280;22076;52.182;5.404;2023-09-19T12:38:53;100992.47;;;24.64;100.00
36010;BME280;22076;52.182;5.404;2023-09-19T12:41:20;100991.34;;;24.50;100.00
36010;BME280;22076;52.182;5.404;2023-09-19T12:43:49;100983.78;;;24.62;100.00
36010;BME280;22076;52.182;5.404;2023-09-19T12:46:20;100996.69;;;24.50;100.00
36010;BME280;22076;52.182;5.404;2023-09-19T12:49:16;100982.00;;;24.46;100.00
36010;BME280;22076;52.182;5.404;2023-09-19T12:51:44;101006.25;;;24.36;100.00
36010;BME280;22076;52.182;5.404;2023-09-19T12:54:11;100995.91;;;24.41;100.00
36010;BME280;22076;52.182;5.404;2023-09-19T12:56:40;100998.69;;;24.48;100.00
36010;BME280;22076;52.182;5.404;2023-09-19T12:59:12;101000.28;;;24.66;100.00
36010;BME280;22076;52.182;5.404;2023-09-19T13:01:39;100991.47;;;24.57;100.00
36010;BME280;22076;52.182;5.404;2023-09-19T13:04:11;100985.66;;;24.53;100.00
36010;BME280;22076;52.182;5.404;2023-09-19T13:06:40;100987.97;;;24.65;100.00
36010;BME280;22076;52.182;5.404;2023-09-19T13:09:09;100995.28;;;25.17;100.00